< < Back
Terminal Aerodrome Forecast


Current Version              Previous Versions:   1  2  3  4  5  6  7  8  9  

Terminal Aerodrome Forecast

446
FTUS42 KFFC 310100 AAA
TAFAHN
TAF AMD
KAHN 310132Z 3102/3124 VRB03KT P6SM VCSH SCT050 BKN100
      TEMPO 3102/3104 VRB15G25KT 3SM TSRA BKN040CB
     FM310400 00000KT P6SM FEW050 BKN100
     FM311000 00000KT 4SM BR SCT010 SCT200
     FM311400 21004KT P6SM SCT020 SCT250
     FM311800 24006KT P6SM SCT045 SCT150=



Latest METAR

471
SAUS70 KWBC 310754
MTRAHN
METAR KAHN 310751Z AUTO 13004KT 6SM -RA FEW008 OVC065 23/22 A3015 RMK
AO2 LTG DSNT E AND SE SLP202 P0004 T02330222


USA.gov is the U.S. government's official web portal to all federal, state and local government web resources and services.